• Join FlightAware (Why Join?)
  • Login
  • US Flag 
05:09PM EDT


 

Airport Tracker/Info


-or-


 

Live Flight TrackerFlight Track Log ✈ KAP550 ✈ 30-Oct-2013 ✈ KMSS - KALB

Flight Track Log - Related Links

Times and Time Zones

All times are in EDT time to prevent confusion due to time zone crossing. See the KAP550 flight status page for this flight to view local times or setup timezone preferences in your user account.

Time Position Orientation Groundspeed Altitude Reporting Facility
EDT Latitude Longitude Course Direction KTS MPH feet Rate Location/Type
01:16PM 44.6914 -74.7242 162° South  Level Estimated
01:17PM 44.6512 -74.7045 161° South  Level Estimated
01:18PM 44.6111 -74.6848 161° South  Level Estimated
01:18PM 44.8700 -74.6942 161° South 112 129 4,000  Level Boston Center
01:19PM 44.5710 -74.6652 161° South  Level Estimated
01:19PM 44.8569 -74.6369 108° East 151 174 4,500  Level Boston Center
01:20PM 44.5308 -74.6455 161° South  Level Estimated
01:20PM 44.8403 -74.5764 111° Southeast 158 182 5,000  Level Boston Center
01:21PM 44.4907 -74.6259 161° South  Level Estimated
01:21PM 44.8231 -74.5128 111° Southeast 167 192 5,500  Level Boston Center
01:22PM 44.4505 -74.6064 161° South  Level Estimated
01:22PM 44.8044 -74.4458 111° Southeast 175 201 6,000  Level Boston Center
01:23PM 44.4104 -74.5868 161° South  Level Estimated
01:23PM 44.7850 -74.3769 112° Southeast 182 209 6,500  Level Boston Center
01:24PM 44.7658 -74.3072 111° Southeast 188 216 7,000 480 Climbing Boston Center
01:25PM 44.7392 -74.2258 115° Southeast 192 221 7,500 420 Climbing Boston Center
01:26PM 44.6883 -74.2178 174° South 187 215 7,900 180 Climbing Boston Center
01:27PM 44.6383 -74.2058 170° South 184 212 7,900  Level Boston Center
01:28PM 44.5878 -74.1944 171° South 184 212 7,900  Level Boston Center
01:29PM 44.5381 -74.1839 171° South 183 211 8,000  Climbing Boston Center
01:30PM 44.4881 -74.1725 171° South 183 211 8,000  Level Boston Center
01:31PM 44.4303 -74.1600 171° South 185 213 8,000  Level Boston Center
01:32PM 44.3797 -74.1481 170° South 185 213 8,000  Level Boston Center
01:33PM 44.3300 -74.1364 170° South 184 212 8,000  Level Boston Center
01:34PM 44.2800 -74.1253 171° South 182 209 8,000  Level Boston Center
01:35PM 44.2294 -74.1158 172° South 174 200 8,000  Level Boston Center
01:36PM 44.1789 -74.1047 171° South 180 207 8,000  Level Boston Center
01:37PM 44.1306 -74.0942 171° South 179 206 8,000  Level Boston Center
01:38PM 44.0786 -74.0833 171° South 175 201 8,000  Level Boston Center
01:39PM 44.0294 -74.0728 171° South 180 207 8,000  Level Boston Center
01:40PM 43.9767 -74.0614 171° South 180 207 8,000  Level Boston Center
01:41PM 43.9283 -74.0528 173° South 176 203 8,000  Level Boston Center
01:42PM 43.8769 -74.0394 169° South 183 211 8,000  Level Boston Center
01:43PM 43.8272 -74.0300 172° South 182 209 8,000  Level Boston Center
01:44PM 43.7764 -74.0183 171° South 185 213 8,000  Level Boston Center
01:45PM 43.7269 -74.0089 172° South 182 209 8,000  Level Boston Center
01:46PM 43.6775 -73.9986 171° South 180 207 8,000  Level Boston Center
01:47PM 43.6272 -73.9861 170° South 178 205 8,000  Level Boston Center
01:48PM 43.5781 -73.9761 172° South 179 206 8,000  Level Boston Center
01:49PM 43.5289 -73.9661 172° South 180 207 8,000  Level Boston Center
01:50PM 43.4875 -73.9578 172° South 178 205 8,000  Level Boston Center
01:50PM 43.4694 -73.9544 172° South 179 206 8,000  Level Boston Center
01:51PM 43.4381 -73.9467 170° South 177 204 8,000  Level Boston Center
01:51PM 43.4214 -73.9422 169° South 178 205 8,000  Level Boston Center
01:52PM 43.3881 -73.9383 175° South 182 209 8,000  Level Boston Center
01:52PM 43.3678 -73.9331 169° South 188 216 8,000  Level Boston Center
01:53PM 43.3344 -73.9256 171° South 181 208 8,000 -120 Level Boston Center
01:53PM 43.3197 -73.9225 171° South 178 205 7,900 -540 Descending Boston Center
01:54PM 43.2833 -73.9228 180° South 180 207 7,500 -540 Descending Boston Center
01:54PM 43.2644 -73.9217 178° South 187 215 7,400 -420 Descending Boston Center
01:55PM 43.2325 -73.9200 178° South 188 216 7,100 -480 Descending Boston Center
01:55PM 43.2125 -73.9217 183° South 188 216 6,900 -540 Descending Boston Center
01:56PM 43.1803 -73.9228 181° South 189 217 6,600 -540 Descending Boston Center
01:56PM 43.1600 -73.9217 178° South 188 216 6,400 -720 Descending Boston Center
01:57PM 43.1267 -73.9219 180° South 193 222 5,900 -720 Descending Boston Center
01:57PM 43.1047 -73.9225 181° South 197 227 5,700 -720 Descending Boston Center
01:58PM 43.0706 -73.9233 181° South 200 230 5,200 -720 Descending Boston Center
01:59PM 43.0461 -73.9244 182° South 197 227 5,000 -240 Descending Boston Center
01:59PM 43.0192 -73.9233 178° South 189 217 5,000  Level Boston Center
02:00PM 42.9981 -73.9256 184° South 176 203 5,000  Level Boston Center
02:00PM 42.9692 -73.9267 182° South 166 191 5,000 -240 Level Boston Center
02:01PM 42.9508 -73.9278 183° South 169 194 4,800 -540 Descending Boston Center
02:01PM 42.9192 -73.9303 183° South 176 203 4,500 -480 Descending Boston Center
02:02PM 42.8969 -73.9300 179° South 180 207 4,300 -480 Descending Boston Center
02:02PM 42.8692 -73.9336 185° South 185 213 4,000 -540 Descending Boston Center
02:03PM 42.8467 -73.9322 177° South 181 208 3,800 -540 Descending Boston Center
02:03PM 42.8186 -73.9164 158° South 197 227 3,500 -720 Descending Boston Center
02:04PM 42.7989 -73.8975 145° Southeast 194 223 3,100 -840 Descending Boston Center
02:04PM 42.7739 -73.8778 150° Southeast 196 226 2,700 -900 Descending Boston Center
02:05PM 42.7489 -73.8569 149° Southeast 196 226 2,200 -720 Descending Boston Center
02:05PM 42.7236 -73.8492 167° South 167 192 2,000 -720 Descending Boston Center
02:06PM 42.7086 -73.8389 153° Southeast 155 178 1,500 -1,020 Descending Boston Center
02:06PM 42.7064 -73.8142 97° East 126 145 1,000 -900 Descending Boston Center
02:07PM 42.7242 -73.8050 21° North 126 145 600 -480 Descending Boston Center
02:08PM 42.7458 -73.8064 357° North 103 119 300 -180 Descending Boston Center
02:09PM 42.7497 -73.8072 351° North 49 56 300  Level Boston Center